Time;durP1;ratioP1;P1;durP2;ratioP2;P2;SDS_P1;SDS_P2;PMS_P1;PMS_P2;Temp;Humidity;BMP_temperature;BMP_pressure;BME280_temperature;BME280_humidity;BME280_pressure;Samples;Min_cycle;Max_cycle;Signal;HPM_P1;HPM_P2
2021/08/01 00:00:21;;;;;;;11.25;4.35;;;;;;;15.49;89.06;98075.75;5045343;28;20087;-63
2021/08/01 00:02:47;;;;;;;9.80;4.10;;;;;;;15.43;89.58;98073.38;5044233;28;20017;-63
2021/08/01 00:05:13;;;;;;;8.05;4.75;;;;;;;15.41;89.56;98069.94;5054887;28;20024;-63
2021/08/01 00:07:38;;;;;;;8.10;3.90;;;;;;;15.45;89.56;98071.53;5063932;28;20092;-63
2021/08/01 00:10:06;;;;;;;7.25;3.97;;;;;;;15.47;89.11;98064.34;5047724;28;20033;-63
2021/08/01 00:12:32;;;;;;;19.95;4.35;;;;;;;15.45;89.03;98073.31;5045292;28;20324;-63
2021/08/01 00:14:58;;;;;;;11.45;4.32;;;;;;;15.52;88.78;98109.22;5063342;28;20052;-63
2021/08/01 00:17:24;;;;;;;10.63;4.32;;;;;;;15.53;88.62;98101.19;5062225;28;20044;-63
2021/08/01 00:19:50;;;;;;;8.95;4.60;;;;;;;15.54;88.71;98096.75;5063543;28;20265;-63
2021/08/01 00:22:15;;;;;;;7.75;4.63;;;;;;;15.53;88.87;98090.59;5060113;28;20021;-63
2021/08/01 00:24:41;;;;;;;8.85;4.70;;;;;;;15.50;88.71;98080.13;5058785;28;20080;-63
2021/08/01 00:27:07;;;;;;;8.23;4.50;;;;;;;15.38;89.22;98101.94;5044086;28;20025;-63
2021/08/01 00:29:32;;;;;;;10.15;4.35;;;;;;;15.38;89.20;98080.72;5062748;28;20067;-63
2021/08/01 00:32:03;;;;;;;7.80;4.25;;;;;;;15.42;89.12;98082.28;5063366;28;20021;-63
2021/08/01 00:34:29;;;;;;;9.07;4.60;;;;;;;15.31;89.28;98073.94;5062199;28;20021;-63
2021/08/01 00:36:54;;;;;;;9.15;4.07;;;;;;;15.33;89.08;98087.13;5063850;28;20087;-63
2021/08/01 00:39:20;;;;;;;8.85;3.90;;;;;;;15.28;88.40;98089.97;5063819;28;20032;-63
2021/08/01 00:41:45;;;;;;;6.22;4.13;;;;;;;15.15;89.15;98083.53;5064054;28;20021;-63
2021/08/01 00:44:11;;;;;;;7.72;4.03;;;;;;;15.25;89.16;98074.22;5054845;28;20025;-63
2021/08/01 00:46:39;;;;;;;12.25;4.47;;;;;;;15.29;88.65;98070.50;5045912;28;20328;-63
2021/08/01 00:49:05;;;;;;;7.20;4.35;;;;;;;15.23;89.19;98068.13;5057610;28;20025;-63
2021/08/01 00:51:31;;;;;;;9.13;4.72;;;;;;;15.18;89.35;98067.47;5058493;28;20338;-63
2021/08/01 00:54:00;;;;;;;10.88;4.68;;;;;;;15.10;89.65;98074.94;5053962;28;20022;-63
2021/08/01 00:56:26;;;;;;;9.23;4.45;;;;;;;15.01;89.94;98065.63;5047096;28;20093;-63
2021/08/01 00:58:51;;;;;;;10.60;5.10;;;;;;;15.02;90.03;98063.81;5061551;28;20017;-63
2021/08/01 01:01:18;;;;;;;12.90;4.57;;;;;;;14.98;90.05;98078.16;5061742;28;20092;-63
2021/08/01 01:04:02;;;;;;;11.55;4.85;;;;;;;14.98;89.90;98075.50;5061178;28;20064;-63
2021/08/01 01:06:40;;;;;;;15.85;4.53;;;;;;;14.94;89.78;98068.63;5048780;28;20313;-63
2021/08/01 01:09:17;;;;;;;12.00;5.00;;;;;;;14.91;89.79;98074.06;5055634;28;20036;-63
2021/08/01 01:11:46;;;;;;;10.32;4.32;;;;;;;14.84;90.18;98072.63;5053982;28;20020;-63
2021/08/01 01:14:22;;;;;;;9.95;4.22;;;;;;;14.79;90.16;98053.41;5066582;28;20027;-63
2021/08/01 01:16:53;;;;;;;8.65;4.85;;;;;;;14.74;90.13;98056.28;5053744;28;20024;-63
2021/08/01 01:19:40;;;;;;;12.20;5.25;;;;;;;14.81;90.11;98072.75;5047413;28;20025;-63
2021/08/01 01:22:11;;;;;;;7.10;4.57;;;;;;;14.83;90.43;98060.28;5047246;28;20048;-63
2021/08/01 01:24:39;;;;;;;9.20;4.88;;;;;;;14.87;90.06;98064.50;5047324;28;20017;-63
2021/08/01 01:27:13;;;;;;;8.70;4.80;;;;;;;14.86;90.09;98060.16;5047314;28;20017;-63
2021/08/01 01:29:58;;;;;;;10.10;4.82;;;;;;;14.70;90.27;98059.13;5057357;28;20017;-63
2021/08/01 01:32:33;;;;;;;8.13;4.65;;;;;;;14.72;90.33;98057.28;5066883;28;20016;-63
2021/08/01 01:35:11;;;;;;;10.60;5.25;;;;;;;14.76;90.40;98064.16;5065454;28;20084;-63
2021/08/01 01:37:37;;;;;;;14.05;4.32;;;;;;;14.77;90.39;98065.84;5060856;28;20309;-63
2021/08/01 01:40:05;;;;;;;12.73;5.50;;;;;;;14.81;90.37;98072.75;5065069;28;20025;-63
2021/08/01 01:42:32;;;;;;;13.25;4.78;;;;;;;14.75;90.38;98057.13;5055959;28;20029;-63
2021/08/01 01:45:00;;;;;;;10.38;4.65;;;;;;;14.72;90.34;98057.28;5048066;28;20021;-63
2021/08/01 01:47:26;;;;;;;8.60;4.80;;;;;;;14.70;90.34;98060.00;5047967;28;20092;-63
2021/08/01 01:49:55;;;;;;;12.23;4.45;;;;;;;14.63;90.29;98057.69;5046824;28;20063;-63
2021/08/01 01:52:22;;;;;;;9.60;4.85;;;;;;;14.67;90.09;98065.41;5046765;28;20022;-63
2021/08/01 01:54:48;;;;;;;6.90;4.05;;;;;;;14.69;90.38;98073.31;5063174;28;20016;-63
2021/08/01 01:57:14;;;;;;;10.05;4.63;;;;;;;14.69;90.15;98073.31;5065044;28;20219;-63
2021/08/01 01:59:40;;;;;;;11.60;4.72;;;;;;;14.53;90.38;98096.09;5064509;28;20045;-63
2021/08/01 02:02:07;;;;;;;11.07;4.72;;;;;;;14.47;90.86;98073.41;5064551;28;20024;-63
2021/08/01 02:04:33;;;;;;;7.85;4.75;;;;;;;14.52;90.70;98074.03;5066238;28;20459;-63
2021/08/01 02:06:59;;;;;;;9.68;5.13;;;;;;;14.42;90.82;98063.91;5066434;28;20037;-63
2021/08/01 02:09:41;;;;;;;11.20;5.13;;;;;;;14.33;90.42;98056.41;5065881;28;20388;-63
2021/08/01 02:12:12;;;;;;;6.70;4.78;;;;;;;14.35;90.81;98065.97;5046687;28;20058;-63
2021/08/01 02:14:56;;;;;;;8.50;4.93;;;;;;;14.39;90.59;98054.31;5046151;28;20021;-63
2021/08/01 02:17:30;;;;;;;10.40;4.78;;;;;;;14.41;90.72;98041.88;5048701;28;20029;-63
2021/08/01 02:19:59;;;;;;;17.95;5.85;;;;;;;14.25;90.79;98029.38;5060662;28;20048;-63
2021/08/01 02:22:25;;;;;;;13.85;5.95;;;;;;;14.29;90.98;98031.81;5053924;28;20088;-63
2021/08/01 02:24:52;;;;;;;9.20;5.43;;;;;;;14.25;91.33;98029.38;5055752;28;20074;-63
2021/08/01 02:27:19;;;;;;;9.27;5.00;;;;;;;14.27;91.21;98051.38;5061764;28;20088;-63
2021/08/01 02:29:46;;;;;;;10.02;4.82;;;;;;;14.28;91.61;98048.66;5046355;28;20017;-63
2021/08/01 02:32:13;;;;;;;10.20;5.50;;;;;;;14.34;91.24;98055.47;5047200;28;20312;-63
2021/08/01 02:34:39;;;;;;;9.43;4.05;;;;;;;14.34;90.98;98051.00;5056964;28;20013;-63
2021/08/01 02:37:07;;;;;;;10.98;4.78;;;;;;;14.29;90.51;98050.34;5064001;28;20024;-63
2021/08/01 02:39:34;;;;;;;13.63;6.30;;;;;;;14.16;90.79;98035.03;5065422;28;20020;-63
2021/08/01 02:42:02;;;;;;;13.65;5.72;;;;;;;14.16;91.30;98040.31;5048384;28;20029;-63
2021/08/01 02:44:31;;;;;;;10.55;5.38;;;;;;;14.15;91.52;98028.03;5065495;28;20332;-63
2021/08/01 02:46:58;;;;;;;9.27;5.10;;;;;;;14.15;91.07;98033.31;5056982;28;20040;-63
2021/08/01 02:49:31;;;;;;;11.80;5.35;;;;;;;14.24;90.79;98048.84;5056161;28;20024;-63
2021/08/01 02:51:59;;;;;;;10.80;4.65;;;;;;;14.28;90.62;98039.84;5065692;28;20216;-63
2021/08/01 02:54:26;;;;;;;8.38;5.50;;;;;;;14.22;90.57;98040.06;5065583;28;20033;-63
2021/08/01 02:56:56;;;;;;;11.73;5.18;;;;;;;14.11;91.02;98048.44;5065514;28;20328;-63
2021/08/01 02:59:24;;;;;;;6.80;4.20;;;;;;;14.09;91.22;98044.16;5065340;28;20050;-63
2021/08/01 03:01:54;;;;;;;8.77;4.38;;;;;;;14.14;90.76;98044.84;5065303;28;20021;-63
2021/08/01 03:04:21;;;;;;;9.55;5.07;;;;;;;14.04;91.01;98041.72;5065368;28;20024;-63
2021/08/01 03:06:47;;;;;;;13.98;5.80;;;;;;;14.02;91.56;98038.25;5060595;28;20021;-63
2021/08/01 03:09:13;;;;;;;8.40;5.05;;;;;;;14.07;91.61;98038.06;5059780;28;20021;-63
2021/08/01 03:11:38;;;;;;;15.20;5.30;;;;;;;14.07;91.32;98040.72;5063361;28;20311;-63
2021/08/01 03:14:04;;;;;;;11.00;5.38;;;;;;;14.11;91.37;98047.63;5063219;28;20082;-63
2021/08/01 03:16:30;;;;;;;18.95;5.97;;;;;;;14.15;91.32;98043.91;5050532;28;20021;-63
2021/08/01 03:18:55;;;;;;;14.90;6.55;;;;;;;14.19;91.29;98093.13;5045137;28;20044;-63
2021/08/01 03:21:21;;;;;;;12.60;5.28;;;;;;;14.25;91.11;98124.66;5045056;28;20017;-63
2021/08/01 03:23:46;;;;;;;8.95;5.10;;;;;;;14.30;90.52;98143.88;5045274;28;20025;-63
2021/08/01 03:26:12;;;;;;;11.63;5.57;;;;;;;14.31;90.72;98172.06;5044590;28;20017;-63
2021/08/01 03:28:37;;;;;;;13.00;6.15;;;;;;;14.19;90.58;98164.59;5044980;28;20079;-63
2021/08/01 03:31:03;;;;;;;12.60;5.40;;;;;;;14.19;90.12;98167.22;5044934;28;20256;-63
2021/08/01 03:33:28;;;;;;;12.38;5.18;;;;;;;13.90;90.42;98199.31;5044880;28;20313;-63
2021/08/01 03:35:54;;;;;;;9.75;4.90;;;;;;;13.90;90.98;98212.53;5045988;28;20052;-63
2021/08/01 03:38:19;;;;;;;10.48;4.90;;;;;;;13.83;91.02;98226.91;5057834;28;20080;-63
2021/08/01 03:40:44;;;;;;;10.98;5.55;;;;;;;13.85;91.19;98256.81;5062514;28;20012;-63
2021/08/01 03:43:10;;;;;;;12.00;5.10;;;;;;;13.93;91.10;98260.91;5061486;28;20032;-63
2021/08/01 03:45:36;;;;;;;9.45;5.45;;;;;;;14.02;91.13;98265.81;5059975;28;20017;-63
2021/08/01 03:48:01;;;;;;;9.32;5.13;;;;;;;14.10;91.22;98284.91;5044660;28;20339;-63
2021/08/01 03:50:27;;;;;;;10.15;5.22;;;;;;;14.13;90.85;98305.09;5054507;28;20315;-63
2021/08/01 03:52:52;;;;;;;10.38;5.15;;;;;;;14.13;90.85;98316.56;5050779;28;20024;-63
2021/08/01 03:55:17;;;;;;;8.52;5.10;;;;;;;14.18;90.42;98239.63;5044503;28;20031;-63
2021/08/01 03:57:43;;;;;;;12.20;5.32;;;;;;;14.15;90.90;98239.75;5047021;28;20017;-63
2021/08/01 04:00:09;;;;;;;7.88;4.78;;;;;;;14.21;90.47;98232.41;5062971;28;20040;-63
2021/08/01 04:02:36;;;;;;;20.45;6.03;;;;;;;14.10;90.78;98265.53;5044177;28;20032;-63
2021/08/01 04:05:05;;;;;;;13.15;5.78;;;;;;;14.16;90.35;98220.28;5044284;28;20057;-63
2021/08/01 04:07:30;;;;;;;9.43;5.22;;;;;;;14.14;90.51;98222.16;5044439;28;20059;-63
2021/08/01 04:09:56;;;;;;;7.28;4.80;;;;;;;14.16;90.45;98215.88;5044297;28;20209;-63
2021/08/01 04:12:22;;;;;;;21.25;5.50;;;;;;;14.06;90.57;98246.28;5053602;28;20020;-63
2021/08/01 04:14:48;;;;;;;10.23;5.35;;;;;;;14.04;91.11;98274.56;5063559;28;20027;-63
2021/08/01 04:17:13;;;;;;;15.32;5.55;;;;;;;14.08;91.21;98301.78;5055104;28;20044;-63
2021/08/01 04:19:38;;;;;;;13.05;5.68;;;;;;;14.18;90.88;98303.16;5044148;28;20028;-63
2021/08/01 04:22:04;;;;;;;14.05;4.97;;;;;;;14.18;90.91;98313.75;5044028;28;20092;-63
2021/08/01 04:24:30;;;;;;;16.98;5.60;;;;;;;14.15;90.96;98335.91;5044035;28;20021;-63
2021/08/01 04:26:56;;;;;;;8.80;5.72;;;;;;;14.19;90.98;98358.69;5045150;28;20024;-63
2021/08/01 04:29:22;;;;;;;8.52;5.80;;;;;;;14.23;91.22;98370.03;5043991;28;20025;-63
2021/08/01 04:31:47;;;;;;;14.13;6.03;;;;;;;14.23;90.99;98383.28;5043983;28;20048;-63
2021/08/01 04:34:16;;;;;;;14.55;6.20;;;;;;;14.33;90.86;98413.78;5043939;28;20017;-63
2021/08/01 04:36:41;;;;;;;10.52;5.13;;;;;;;14.38;90.75;98375.63;5043858;28;20041;-63
2021/08/01 04:39:06;;;;;;;9.68;5.18;;;;;;;14.42;90.98;98376.34;5045788;28;20027;-63
2021/08/01 04:41:32;;;;;;;11.60;5.28;;;;;;;14.36;90.70;98350.97;5063197;28;20059;-63
2021/08/01 04:43:57;;;;;;;10.73;6.28;;;;;;;14.31;91.10;98305.31;5062952;28;20021;-63
2021/08/01 04:46:23;;;;;;;9.55;5.65;;;;;;;14.40;90.82;98325.25;5061861;28;20040;-63
2021/08/01 04:48:48;;;;;;;8.65;5.60;;;;;;;14.45;90.83;98360.34;5063232;28;20028;-63
2021/08/01 04:51:13;;;;;;;8.98;5.10;;;;;;;14.44;90.47;98316.25;5046383;28;20021;-63
2021/08/01 04:53:39;;;;;;;8.23;5.70;;;;;;;14.25;90.67;98294.09;5063166;28;20392;-63
2021/08/01 04:56:10;;;;;;;10.40;5.07;;;;;;;14.19;91.25;98291.63;5063087;28;20032;-63
2021/08/01 04:58:36;;;;;;;10.70;6.00;;;;;;;14.28;91.12;98302.78;5044227;28;20021;-63
2021/08/01 05:01:02;;;;;;;14.40;6.07;;;;;;;14.38;91.04;98316.50;5044766;28;20057;-63
2021/08/01 05:03:27;;;;;;;7.63;5.05;;;;;;;14.38;90.69;98402.09;5043530;28;20025;-63
2021/08/01 05:05:53;;;;;;;11.15;5.47;;;;;;;14.46;90.74;98394.72;5043635;28;20017;-63
2021/08/01 05:08:18;;;;;;;7.88;5.72;;;;;;;14.35;90.64;98349.25;5060384;28;20021;-63
2021/08/01 05:10:44;;;;;;;13.85;5.07;;;;;;;14.42;90.38;98424.00;5059425;28;20056;-63
2021/08/01 05:13:09;;;;;;;17.15;6.32;;;;;;;14.54;90.67;98429.72;5050105;28;20024;-63
2021/08/01 05:15:35;;;;;;;10.02;5.57;;;;;;;14.59;90.27;98453.38;5062683;28;20025;-63
2021/08/01 05:18:02;;;;;;;8.13;5.28;;;;;;;14.65;90.49;98373.69;5048904;28;20025;-63
2021/08/01 05:20:27;;;;;;;12.45;5.88;;;;;;;14.63;91.14;98359.63;5051596;28;20040;-63
2021/08/01 05:22:52;;;;;;;11.70;5.90;;;;;;;14.72;91.10;98359.28;5047505;28;20335;-63
2021/08/01 05:25:18;;;;;;;12.18;4.95;;;;;;;14.83;90.76;98364.97;5062880;28;20032;-63
2021/08/01 05:27:43;;;;;;;9.40;5.75;;;;;;;14.85;90.52;98424.09;5046068;28;20017;-63
2021/08/01 05:30:09;;;;;;;10.63;5.43;;;;;;;14.90;90.39;98353.22;5046526;28;20339;-63
2021/08/01 05:32:34;;;;;;;12.07;5.82;;;;;;;14.97;90.06;98354.72;5056463;28;20081;-63
2021/08/01 05:35:00;;;;;;;12.02;4.70;;;;;;;15.01;90.22;98356.28;5043393;28;20040;-63
2021/08/01 05:37:26;;;;;;;13.60;6.32;;;;;;;15.00;90.35;98349.28;5056802;28;20021;-63
2021/08/01 05:39:52;;;;;;;13.05;5.72;;;;;;;14.99;90.37;98348.41;5046413;28;20212;-63
2021/08/01 05:42:18;;;;;;;11.30;5.30;;;;;;;14.96;90.70;98352.97;5062661;28;20201;-63
2021/08/01 05:44:44;;;;;;;9.57;5.63;;;;;;;15.02;91.08;98358.00;5062728;28;20021;-63
2021/08/01 05:47:09;;;;;;;12.27;6.18;;;;;;;14.97;90.96;98354.72;5051584;28;20259;-63
2021/08/01 05:49:35;;;;;;;15.38;7.13;;;;;;;15.02;90.93;98347.41;5058799;28;20017;-63
2021/08/01 05:52:01;;;;;;;9.50;4.80;;;;;;;15.08;90.77;98355.09;5065474;28;20035;-63
2021/08/01 05:54:26;;;;;;;10.05;6.00;;;;;;;15.12;91.12;98356.69;5050308;28;20013;-63
2021/08/01 05:56:52;;;;;;;12.30;6.10;;;;;;;15.17;91.71;98362.69;5057629;28;20124;-63
2021/08/01 05:59:17;;;;;;;12.13;5.88;;;;;;;15.30;91.29;98442.56;5046548;28;20100;-63
2021/08/01 06:01:43;;;;;;;11.43;6.57;;;;;;;15.40;91.09;98465.19;5046550;28;20087;-63
2021/08/01 06:04:08;;;;;;;12.63;6.22;;;;;;;15.37;90.62;98476.75;5062899;28;20284;-63
2021/08/01 06:06:33;;;;;;;18.70;6.45;;;;;;;15.47;90.55;98494.03;5047683;28;20017;-63
2021/08/01 06:09:01;;;;;;;10.38;5.88;;;;;;;15.55;90.59;98444.19;5046544;28;20335;-63
2021/08/01 06:11:26;;;;;;;10.57;5.63;;;;;;;15.60;90.32;98410.34;5046467;28;20080;-63
2021/08/01 06:13:52;;;;;;;10.52;6.30;;;;;;;15.64;90.62;98401.34;5046438;28;20024;-63
2021/08/01 06:16:17;;;;;;;13.23;6.03;;;;;;;15.73;90.17;98411.56;5054481;28;20081;-63
2021/08/01 06:18:43;;;;;;;13.70;5.97;;;;;;;15.75;89.49;98404.38;5046297;28;20017;-63
2021/08/01 06:21:19;;;;;;;13.73;6.32;;;;;;;15.75;89.41;98409.69;5046245;28;20051;-63
2021/08/01 06:23:52;;;;;;;16.75;6.28;;;;;;;15.76;89.90;98419.38;5058299;28;20021;-63
2021/08/01 06:26:20;;;;;;;17.25;6.97;;;;;;;15.73;90.46;98410.69;5056725;28;20064;-63
2021/08/01 06:28:47;;;;;;;16.92;6.60;;;;;;;15.69;90.56;98403.81;5061381;28;20029;-63
2021/08/01 06:31:12;;;;;;;15.18;7.05;;;;;;;15.60;90.77;98399.72;5046120;28;20096;-63
2021/08/01 06:33:41;;;;;;;11.95;7.10;;;;;;;15.65;91.05;98395.09;5047453;28;20055;-63
2021/08/01 06:36:09;;;;;;;8.18;6.15;;;;;;;15.71;91.10;98397.50;5046930;28;20269;-63
2021/08/01 06:38:35;;;;;;;13.70;7.75;;;;;;;15.70;91.09;98395.78;5048979;28;20365;-63
2021/08/01 06:41:00;;;;;;;15.07;6.72;;;;;;;15.73;91.20;98411.56;5065375;28;20016;-63
2021/08/01 06:43:26;;;;;;;12.18;5.63;;;;;;;15.86;91.34;98407.44;5065318;28;20260;-63
2021/08/01 06:45:51;;;;;;;20.40;8.07;;;;;;;15.91;91.04;98410.75;5064045;28;20024;-63
2021/08/01 06:48:16;;;;;;;10.73;6.97;;;;;;;15.99;91.16;98413.94;5064927;28;20040;-63
2021/08/01 06:50:42;;;;;;;15.82;8.02;;;;;;;16.04;90.72;99458.09;5063771;28;20204;-63
2021/08/01 06:53:07;;;;;;;16.38;8.10;;;;;;;15.97;90.64;98859.13;5064801;28;20248;-63
2021/08/01 06:55:33;;;;;;;14.93;7.80;;;;;;;16.03;91.25;98670.38;5063912;28;20024;-62
2021/08/01 06:57:58;;;;;;;15.45;8.45;;;;;;;16.12;91.37;98643.47;5064229;28;20040;-62
2021/08/01 07:00:24;;;;;;;169.52;21.23;;;;;;;16.12;91.09;98611.59;5046240;28;20148;-62
2021/08/01 07:02:52;;;;;;;13.80;7.18;;;;;;;16.14;91.01;98609.72;5044275;28;20025;-62
2021/08/01 07:05:18;;;;;;;8.68;4.75;;;;;;;16.31;91.07;98593.97;5049180;28;20025;-63
2021/08/01 07:07:43;;;;;;;11.10;6.10;;;;;;;16.45;91.42;98572.16;5053826;28;20021;-63
2021/08/01 07:10:09;;;;;;;11.30;5.10;;;;;;;16.61;91.11;98568.72;5063549;28;20025;-63
2021/08/01 07:12:35;;;;;;;15.60;7.72;;;;;;;16.76;90.62;98530.84;5061625;28;20021;-63
2021/08/01 07:15:01;;;;;;;12.18;6.57;;;;;;;16.88;88.71;98559.53;5053436;28;20028;-63
2021/08/01 07:17:28;;;;;;;10.90;5.95;;;;;;;17.06;87.94;98516.13;5053943;28;20025;-63
2021/08/01 07:19:54;;;;;;;13.00;7.00;;;;;;;17.27;88.21;98517.78;5045437;28;20296;-63
2021/08/01 07:22:19;;;;;;;11.85;6.95;;;;;;;17.55;87.62;98511.13;5054504;28;20029;-63
2021/08/01 07:24:44;;;;;;;17.42;6.88;;;;;;;17.72;87.59;98487.22;5064252;28;20025;-63
2021/08/01 07:27:10;;;;;;;12.75;6.75;;;;;;;17.75;86.29;98487.06;5056889;28;20050;-63
2021/08/01 07:29:36;;;;;;;18.42;5.78;;;;;;;17.89;84.90;98489.88;5064481;28;20021;-63
2021/08/01 07:32:01;;;;;;;12.23;6.30;;;;;;;18.05;85.20;98483.72;5063110;28;20365;-63
2021/08/01 07:34:27;;;;;;;15.40;6.53;;;;;;;18.12;83.92;98466.47;5046971;28;20379;-63
2021/08/01 07:36:52;;;;;;;10.60;5.70;;;;;;;18.21;83.51;98449.13;5055632;28;20087;-63
2021/08/01 07:39:17;;;;;;;11.73;5.55;;;;;;;18.22;82.32;98425.06;5062939;28;20224;-63
2021/08/01 07:41:43;;;;;;;15.15;5.50;;;;;;;18.29;82.52;98420.28;5056855;28;20022;-64
2021/08/01 07:44:08;;;;;;;13.88;4.97;;;;;;;18.42;81.73;98427.56;5047206;28;20080;-63
2021/08/01 07:46:33;;;;;;;12.60;5.05;;;;;;;18.35;81.64;98414.63;5044758;28;20025;-63
2021/08/01 07:48:59;;;;;;;12.90;4.65;;;;;;;18.38;82.68;98414.50;5046869;28;20033;-63
2021/08/01 07:51:25;;;;;;;15.40;5.65;;;;;;;18.40;82.57;98420.59;5052522;28;20040;-63
2021/08/01 07:53:50;;;;;;;11.57;5.22;;;;;;;18.41;83.29;98420.53;5052273;28;20062;-63
2021/08/01 07:56:16;;;;;;;8.02;5.13;;;;;;;18.54;83.41;98426.06;5061197;28;20052;-63
2021/08/01 07:58:41;;;;;;;9.32;4.88;;;;;;;18.71;82.03;98418.88;5044524;28;20017;-63
2021/08/01 08:01:06;;;;;;;10.35;4.80;;;;;;;18.88;81.67;98417.91;5052314;28;20049;-63
2021/08/01 08:03:32;;;;;;;9.52;4.65;;;;;;;19.02;80.93;98424.19;5056194;28;20028;-63
2021/08/01 08:05:58;;;;;;;11.57;4.28;;;;;;;19.00;78.96;98409.22;5056916;28;20227;-63
2021/08/01 08:08:23;;;;;;;9.95;3.63;;;;;;;19.22;77.19;98420.41;5053949;28;20088;-63
2021/08/01 08:10:49;;;;;;;5.68;3.08;;;;;;;19.31;78.67;98419.91;5044367;28;20028;-63
2021/08/01 08:13:14;;;;;;;9.95;5.35;;;;;;;19.61;76.77;98427.94;5060129;28;20250;-63
2021/08/01 08:15:40;;;;;;;13.20;5.60;;;;;;;19.99;75.82;98430.03;5052657;28;20084;-63
2021/08/01 08:18:05;;;;;;;19.40;5.47;;;;;;;20.65;75.81;98452.69;5049843;28;20075;-63
2021/08/01 08:20:31;;;;;;;14.25;4.63;;;;;;;21.41;71.84;98463.88;5063454;28;20021;-63
2021/08/01 08:22:56;;;;;;;10.65;4.93;;;;;;;21.51;70.07;98444.41;5058419;28;20092;-63
2021/08/01 08:25:22;;;;;;;8.90;4.63;;;;;;;21.47;69.14;98442.03;5044194;28;20025;-63
2021/08/01 08:27:48;;;;;;;7.22;4.28;;;;;;;21.40;68.07;98424.66;5053501;28;20084;-63
2021/08/01 08:30:13;;;;;;;9.60;4.45;;;;;;;21.70;69.61;98436.03;5062126;28;20020;-63
2021/08/01 08:32:39;;;;;;;10.23;3.80;;;;;;;21.88;65.54;98440.16;5063523;28;20316;-63
2021/08/01 08:35:05;;;;;;;12.85;3.92;;;;;;;22.02;64.14;98434.72;5044911;28;20021;-63
2021/08/01 08:37:30;;;;;;;11.88;3.25;;;;;;;22.76;64.39;98449.16;5057357;28;20351;-63
2021/08/01 08:39:55;;;;;;;10.23;3.60;;;;;;;23.16;61.67;98442.63;5055328;28;20029;-63
2021/08/01 08:42:22;;;;;;;5.57;3.35;;;;;;;23.70;60.78;98451.16;5046858;28;20063;-63
2021/08/01 08:44:48;;;;;;;7.50;3.00;;;;;;;23.69;58.04;98444.06;5063672;28;20078;-63
2021/08/01 08:47:18;;;;;;;8.43;3.15;;;;;;;24.75;57.34;98462.66;5046035;28;20368;-63
2021/08/01 08:49:47;;;;;;;7.65;3.35;;;;;;;24.83;54.92;98453.94;5056907;28;20021;-63
2021/08/01 08:52:13;;;;;;;6.55;2.67;;;;;;;24.24;58.64;98418.25;5055323;28;20053;-63
2021/08/01 08:54:46;;;;;;;7.80;3.20;;;;;;;23.53;58.22;98400.50;5047096;28;20279;-63
2021/08/01 08:57:29;;;;;;;6.72;2.97;;;;;;;23.38;57.50;98396.28;5062823;28;20032;-63
2021/08/01 09:00:08;;;;;;;9.15;3.42;;;;;;;24.23;55.80;98424.59;5063082;28;20049;-63
2021/08/01 09:02:34;;;;;;;4.68;2.90;;;;;;;24.65;58.07;98423.94;5060948;28;20025;-63
2021/08/01 09:05:00;;;;;;;9.13;3.30;;;;;;;24.10;57.11;98399.63;5044016;28;20036;-63
2021/08/01 09:07:26;;;;;;;8.68;3.30;;;;;;;23.75;60.27;98396.06;5051512;28;20213;-63
2021/08/01 09:09:52;;;;;;;8.50;3.22;;;;;;;23.12;60.85;98382.91;5054820;28;20067;-63
2021/08/01 09:12:17;;;;;;;11.80;2.67;;;;;;;23.18;60.99;98370.84;5063247;28;20185;-63
2021/08/01 09:14:44;;;;;;;8.88;3.42;;;;;;;22.50;61.28;98346.34;5063049;28;20024;-63
2021/08/01 09:17:10;;;;;;;6.28;2.78;;;;;;;22.20;63.47;98345.84;5051816;28;20025;-63
2021/08/01 09:19:43;;;;;;;6.65;3.15;;;;;;;21.92;63.40;98329.13;5043896;28;20028;-63
2021/08/01 09:22:15;;;;;;;16.33;3.22;;;;;;;21.80;64.92;98348.72;5054634;28;20021;-63
2021/08/01 09:24:43;;;;;;;6.65;3.13;;;;;;;22.18;61.71;98352.28;5050001;28;20017;-63
2021/08/01 09:27:25;;;;;;;7.25;3.15;;;;;;;21.85;61.75;98350.13;5049268;28;20089;-63
2021/08/01 09:29:50;;;;;;;86.28;15.23;;;;;;;21.33;64.37;98329.63;5051462;28;20020;-63
2021/08/01 09:32:16;;;;;;;7.70;3.33;;;;;;;20.95;66.46;98321.47;5047426;28;20033;-63
2021/08/01 09:34:48;;;;;;;7.57;3.80;;;;;;;21.09;66.16;98335.66;5055609;28;20021;-63
2021/08/01 09:37:36;;;;;;;9.65;4.18;;;;;;;20.99;67.28;98325.66;5055668;28;20029;-63
2021/08/01 09:40:10;;;;;;;7.38;3.40;;;;;;;21.00;65.99;98314.88;5055231;28;20025;-63
2021/08/01 09:42:53;;;;;;;9.38;4.55;;;;;;;21.33;65.30;98332.31;5047259;28;20022;-64
2021/08/01 09:45:22;;;;;;;10.10;4.15;;;;;;;21.41;64.27;98324.63;5047111;28;20428;-64
2021/08/01 09:47:49;;;;;;;10.40;4.47;;;;;;;21.73;64.61;98331.34;5047017;28;20013;-64
2021/08/01 09:50:17;;;;;;;9.35;4.80;;;;;;;21.73;63.54;98331.34;5047006;28;20021;-64
2021/08/01 09:52:43;;;;;;;6.97;4.25;;;;;;;21.99;63.21;98331.25;5055881;28;20199;-64
2021/08/01 09:55:22;;;;;;;12.02;4.97;;;;;;;22.14;62.68;98338.22;5064611;28;20048;-64
2021/08/01 09:57:57;;;;;;;9.15;4.95;;;;;;;22.80;60.99;98354.03;5064465;28;20048;-64
2021/08/01 10:00:23;;;;;;;7.70;4.82;;;;;;;23.65;61.48;98376.25;5046605;28;20039;-64
2021/08/01 10:02:49;;;;;;;10.02;5.00;;;;;;;22.61;60.89;98322.31;5046578;28;20029;-65
2021/08/01 10:05:14;;;;;;;6.53;4.35;;;;;;;22.86;59.91;98342.84;5057219;28;20367;-65
2021/08/01 10:07:43;;;;;;;10.13;4.60;;;;;;;23.88;58.75;98361.91;5066052;28;20028;-65
2021/08/01 10:10:23;;;;;;;9.18;5.28;;;;;;;24.98;56.86;98388.09;5058443;28;20064;-65
2021/08/01 10:12:52;;;;;;;42.83;27.13;;;;;;;24.36;56.58;98360.78;5054431;28;20088;-65
2021/08/01 10:15:18;;;;;;;134.93;18.63;;;;;;;24.46;55.53;98352.84;5053407;28;20188;-65
2021/08/01 10:17:44;;;;;;;8.20;4.35;;;;;;;24.83;53.83;98363.25;5060538;28;20017;-65
2021/08/01 10:20:10;;;;;;;216.90;122.63;;;;;;;24.92;55.32;98351.75;5060164;28;20031;-65
2021/08/01 10:22:38;;;;;;;8.75;3.25;;;;;;;24.49;52.49;98331.91;5062267;28;20021;-65
2021/08/01 10:25:07;;;;;;;14.18;4.68;;;;;;;24.41;55.67;98333.53;5060427;28;20016;-65
2021/08/01 10:27:36;;;;;;;11.57;4.10;;;;;;;25.79;53.67;98369.63;5058463;28;20032;-65
2021/08/01 10:30:02;;;;;;;7.30;3.30;;;;;;;26.43;49.38;98371.19;5060282;28;20029;-65
2021/08/01 10:32:33;;;;;;;10.00;3.10;;;;;;;25.79;50.97;98291.41;5059963;28;20009;-65
2021/08/01 10:35:09;;;;;;;8.23;3.35;;;;;;;24.69;54.59;98260.38;5060463;28;20021;-65
2021/08/01 10:37:45;;;;;;;10.38;3.38;;;;;;;23.71;56.10;98240.53;5059973;28;20021;-65
2021/08/01 10:40:15;;;;;;;7.55;2.95;;;;;;;23.32;56.33;98233.78;5057882;28;20037;-65
2021/08/01 10:42:42;;;;;;;7.75;3.50;;;;;;;22.68;60.49;98210.88;5060715;28;20320;-65
2021/08/01 10:45:09;;;;;;;9.88;3.60;;;;;;;23.83;59.41;98259.28;5059387;28;20308;-65
2021/08/01 10:47:36;;;;;;;14.02;3.70;;;;;;;25.01;57.80;98278.28;5061437;28;20039;-65
2021/08/01 10:50:07;;;;;;;8.70;3.42;;;;;;;25.60;54.08;98305.63;5048161;28;20304;-65
2021/08/01 10:52:35;;;;;;;5.97;2.72;;;;;;;24.42;56.32;98241.09;5054193;28;20212;-65
2021/08/01 10:55:03;;;;;;;6.65;2.78;;;;;;;24.27;56.66;98240.47;5058049;28;20066;-65
2021/08/01 10:57:29;;;;;;;7.28;3.10;;;;;;;24.14;59.02;98247.81;5051902;28;20024;-65
2021/08/01 10:59:57;;;;;;;6.30;2.65;;;;;;;24.73;56.30;98259.13;5056743;28;20068;-65
2021/08/01 11:02:30;;;;;;;8.88;3.17;;;;;;;24.64;57.63;98243.75;5059575;28;20097;-65
2021/08/01 11:04:56;;;;;;;7.38;2.88;;;;;;;24.11;59.80;98234.59;5053213;28;20301;-65
2021/08/01 11:07:27;;;;;;;10.07;3.03;;;;;;;23.39;64.44;98213.50;5062517;28;20095;-65
2021/08/01 11:10:22;;;;;;;21.75;4.13;;;;;;;22.65;64.36;98194.19;5059702;28;20047;-65
2021/08/01 11:12:47;;;;;;;11.25;3.55;;;;;;;22.13;67.62;98186.41;5044926;28;20067;-65
2021/08/01 11:15:14;;;;;;;6.68;3.95;;;;;;;21.94;70.46;98182.47;5045271;28;20304;-65
2021/08/01 11:17:46;;;;;;;9.77;3.95;;;;;;;21.91;70.22;98190.72;5047934;28;20344;-65
2021/08/01 11:20:23;;;;;;;9.73;4.35;;;;;;;22.40;71.45;98194.25;5053811;28;20036;-65
2021/08/01 11:22:49;;;;;;;7.22;3.42;;;;;;;22.64;69.26;98204.03;5060256;28;20040;-64
2021/08/01 11:25:26;;;;;;;10.85;3.92;;;;;;;23.26;68.35;98218.13;5046580;28;20080;-64
2021/08/01 11:28:12;;;;;;;8.02;3.60;;;;;;;23.66;68.24;98210.50;5058290;28;20017;-64
2021/08/01 11:30:49;;;;;;;6.53;3.28;;;;;;;23.93;67.23;98225.31;5046316;28;20029;-64